Baskett, Kentucky
Current Conditions -  °F | °C
As of 7:54 AM on Tuesday 27 Jan 2015 (Local Time) from KEVV Reporting Station
Haze Haze  
Wind Chill: 33°   Ceiling: 700
Heat Index: 33°   Visibility: 2mi
Dew Point: 30°   Wind: 3mph
Humidity: 89%   Direction: 360°N
Pressure: 30.04"   Gusts: NA
Location:  37.87°N, 87.46°W
Report Text: KEVV 271354Z 36003KT 2SM BR BKN007 BKN012 OVC025 01/M01 A3004 RMK AO2 SLP178 T00061011
Loading
Personal Weather Stations






























Interactive Weather Map New forecast layout! Learn more

10-Day Weather Forecast

Advertisements
Track Severe Weather on mobile